Time;durP1;ratioP1;P1;durP2;ratioP2;P2;SDS_P1;SDS_P2;PMS_P1;PMS_P2;Temp;Humidity;BMP_temperature;BMP_pressure;BME280_temperature;BME280_humidity;BME280_pressure;Samples;Min_cycle;Max_cycle;Signal;HPM_P1;HPM_P2
2024/02/08 00:13:58;;;;;;;4.70;2.00;;;;;;;3.19;73.51;99008.64;679821;1264;138505;-79
2024/02/08 00:29:01;;;;;;;5.80;1.90;;;;;;;3.21;73.45;99024.06;680694;1262;138996;-80
2024/02/08 00:44:05;;;;;;;7.10;2.70;;;;;;;3.17;73.22;99036.48;677659;1266;139951;-79
2024/02/08 00:59:10;;;;;;;6.60;2.50;;;;;;;3.07;73.16;99048.39;677658;1263;138858;-80
2024/02/08 01:14:13;;;;;;;8.70;3.60;;;;;;;2.90;73.04;99057.98;677891;1263;138874;-79
2024/02/08 01:29:24;;;;;;;9.80;3.50;;;;;;;2.67;72.86;99066.45;678961;1262;139391;-79
2024/02/08 01:44:28;;;;;;;8.60;4.40;;;;;;;2.56;73.16;99083.10;682060;1257;138780;-79
2024/02/08 01:59:32;;;;;;;5.70;2.40;;;;;;;2.47;73.54;99094.11;676671;1262;139958;-79
2024/02/08 02:14:38;;;;;;;11.20;4.40;;;;;;;2.17;73.95;99103.17;681987;1259;138396;-79
2024/02/08 02:29:44;;;;;;;17.70;5.70;;;;;;;1.93;74.29;99110.23;677680;1262;138969;-80
2024/02/08 02:44:48;;;;;;;13.50;4.70;;;;;;;1.83;74.48;99124.70;680136;1266;140711;-79
2024/02/08 02:59:55;;;;;;;15.90;4.90;;;;;;;1.91;74.51;99131.93;682039;1260;140582;-79
2024/02/08 03:15:00;;;;;;;9.90;5.30;;;;;;;1.85;74.54;99127.84;679468;1263;140268;-78
2024/02/08 03:30:05;;;;;;;15.40;5.70;;;;;;;1.72;75.26;99129.46;680273;1263;139977;-79
2024/02/08 03:45:08;;;;;;;7.80;5.50;;;;;;;1.47;75.24;99131.52;680763;1263;140138;-79
2024/02/08 04:00:27;;;;;;;14.70;5.60;;;;;;;1.18;75.37;99133.80;680328;1263;138914;-79
2024/02/08 05:01:45;;;;;;;12.10;7.90;;;;;;;0.70;79.19;99148.67;680020;1262;139150;-80
2024/02/08 05:16:54;;;;;;;19.10;11.00;;;;;;;0.53;80.80;99144.61;679064;1276;139754;-80
2024/02/08 05:31:58;;;;;;;13.40;8.20;;;;;;;0.38;81.58;99144.57;677821;1264;139888;-80
2024/02/08 05:47:06;;;;;;;14.30;7.10;;;;;;;0.60;81.16;99158.41;680458;1265;139994;-80
2024/02/08 06:02:22;;;;;;;14.00;8.90;;;;;;;1.34;78.36;99173.93;677943;1262;140954;-80
2024/02/08 06:17:38;;;;;;;13.70;9.40;;;;;;;1.37;78.84;99176.80;677460;1259;138666;-80
2024/02/08 06:32:44;;;;;;;19.30;11.10;;;;;;;1.27;78.97;99183.70;678897;1263;139354;-81
2024/02/08 07:41:54;;;;;;;31.10;14.70;;;;;;;2.07;80.54;99216.17;676997;1274;138580;-80
2024/02/08 07:57:00;;;;;;;33.90;15.60;;;;;;;2.20;80.68;99220.11;675900;1273;139895;-81
2024/02/08 08:12:05;;;;;;;27.40;12.80;;;;;;;3.70;83.13;99230.34;674120;1271;138737;-80
2024/02/08 08:27:32;;;;;;;24.80;10.30;;;;;;;7.64;83.25;99227.27;673302;1271;138671;-79
2024/02/08 08:42:37;;;;;;;23.80;12.60;;;;;;;7.78;75.80;99209.73;676396;1274;138490;-79
2024/02/08 08:57:47;;;;;;;28.60;13.20;;;;;;;7.68;72.20;99206.89;673147;1276;138389;-80
2024/02/08 09:13:06;;;;;;;18.20;8.00;;;;;;;7.81;68.15;99200.27;675622;1273;137628;-80
2024/02/08 09:28:26;;;;;;;18.00;8.60;;;;;;;7.63;64.97;99189.11;676363;1271;138566;-79
2024/02/08 09:43:31;;;;;;;15.80;5.70;;;;;;;9.35;61.92;99187.89;675494;1274;137978;-79
2024/02/08 09:58:37;;;;;;;9.80;5.60;;;;;;;9.56;59.21;99182.11;671339;1276;137561;-80
2024/02/08 10:14:01;;;;;;;7.30;3.90;;;;;;;10.70;56.35;99162.48;675225;1275;138207;-79
2024/02/08 10:29:14;;;;;;;22.60;9.30;;;;;;;9.74;53.96;99149.54;677540;1269;139564;-79
2024/02/08 10:44:22;;;;;;;12.10;5.90;;;;;;;9.71;54.66;99135.68;677529;1268;140337;-79
2024/02/08 10:59:48;;;;;;;15.90;5.90;;;;;;;9.75;54.93;99120.59;674846;1267;138327;-80
2024/02/08 11:14:58;;;;;;;153.50;45.00;;;;;;;8.31;55.15;99100.70;678055;1268;138667;-82
2024/02/08 11:30:10;;;;;;;14.90;5.10;;;;;;;7.24;57.24;99090.14;678285;1269;138284;-80
2024/02/08 11:45:16;;;;;;;23.00;6.90;;;;;;;7.31;58.04;99076.16;678983;1268;138820;-80
2024/02/08 12:00:24;;;;;;;14.40;5.60;;;;;;;6.76;59.30;99071.58;676593;1268;139163;-80
2024/02/08 12:15:28;;;;;;;24.90;10.80;;;;;;;6.82;60.39;99054.55;679694;1268;138404;-79
2024/02/08 12:30:39;;;;;;;25.40;8.90;;;;;;;6.71;61.43;99038.54;676605;1268;140409;-80
2024/02/08 12:45:47;;;;;;;18.50;10.00;;;;;;;6.95;61.77;99027.59;675737;1268;138691;-80
2024/02/08 13:01:04;;;;;;;16.60;6.00;;;;;;;6.77;61.49;99016.80;674228;1269;139443;-81
2024/02/08 13:16:09;;;;;;;21.70;10.40;;;;;;;7.13;60.43;99003.14;675729;1269;140316;-81
2024/02/08 13:31:19;;;;;;;21.00;10.40;;;;;;;6.81;60.54;99001.64;676605;1268;141543;-83
2024/02/08 13:46:29;;;;;;;15.00;8.90;;;;;;;6.53;61.90;99006.27;673211;1267;138780;-81
2024/02/08 14:01:35;;;;;;;16.60;7.70;;;;;;;6.26;62.66;99013.05;673865;1265;141083;-80
2024/02/08 14:16:40;;;;;;;20.10;8.00;;;;;;;5.78;63.35;99012.05;673657;1277;138303;-81
2024/02/08 14:31:43;;;;;;;27.80;11.40;;;;;;;5.34;64.39;99011.00;672292;1278;138443;-80
2024/02/08 14:46:48;;;;;;;35.20;14.50;;;;;;;5.13;66.36;98997.05;673438;1266;139439;-80
2024/02/08 15:01:59;;;;;;;30.40;12.50;;;;;;;4.98;68.21;98996.05;676075;1267;139282;-80
2024/02/08 15:17:08;;;;;;;35.10;16.10;;;;;;;4.80;69.48;98992.41;675558;1267;139585;-81
2024/02/08 15:32:30;;;;;;;31.30;12.20;;;;;;;4.53;70.45;98975.21;678433;1270;138897;-79
2024/02/08 15:47:35;;;;;;;67.10;28.90;;;;;;;4.27;71.54;98974.45;679161;1267;139444;-79
2024/02/08 16:02:39;;;;;;;67.60;27.10;;;;;;;4.10;72.61;98974.48;678413;1267;140137;-80
2024/02/08 16:18:00;;;;;;;58.80;26.90;;;;;;;4.05;73.47;98963.24;677035;1267;139114;-79
2024/02/08 16:33:09;;;;;;;62.10;24.30;;;;;;;3.97;74.26;98967.18;677813;1267;140049;-81
2024/02/08 16:48:21;;;;;;;62.60;20.10;;;;;;;3.82;75.01;98966.34;678005;1270;140409;-79
2024/02/08 17:03:50;;;;;;;65.50;21.60;;;;;;;3.74;75.51;98966.13;677246;1267;140605;-81
2024/02/08 17:34:22;;;;;;;76.80;25.30;;;;;;;3.37;78.61;98944.14;677817;1266;140614;-80
2024/02/08 17:49:29;;;;;;;81.70;26.60;;;;;;;3.40;79.34;98929.71;677905;1267;139702;-80
2024/02/08 18:04:36;;;;;;;70.60;27.60;;;;;;;3.70;78.28;98932.39;678006;1263;139625;-80
2024/02/08 18:19:45;;;;;;;44.50;20.50;;;;;;;3.67;77.71;98925.30;678782;1266;139341;-80
2024/02/08 18:34:50;;;;;;;33.90;15.70;;;;;;;3.73;77.77;98916.39;679107;1260;139137;-80
2024/02/08 19:03:46;;;;;;;92.30;31.70;;;;;;;4.01;77.01;98902.87;664464;1290;545168;-80
2024/02/08 19:18:57;;;;;;;85.70;28.50;;;;;;;4.12;76.35;98895.02;672713;1274;138216;-80
2024/02/08 19:34:02;;;;;;;48.30;18.70;;;;;;;4.08;76.81;98896.20;675407;1273;139110;-79
2024/02/08 19:49:07;;;;;;;48.20;20.00;;;;;;;3.97;77.97;98885.70;675388;1279;140130;-80
2024/02/08 20:04:24;;;;;;;69.20;28.70;;;;;;;4.00;78.08;98885.85;671501;1273;139905;-79
2024/02/08 20:19:28;;;;;;;43.90;19.70;;;;;;;3.97;78.76;98890.37;674049;1263;141805;-80
2024/02/08 20:34:35;;;;;;;42.60;17.50;;;;;;;3.93;79.08;98890.23;677693;1261;139544;-80
2024/02/08 20:49:40;;;;;;;48.60;19.00;;;;;;;4.03;78.35;98901.84;677704;1261;138685;-79
2024/02/08 21:04:49;;;;;;;52.90;18.30;;;;;;;4.09;77.30;98914.50;678460;1262;139158;-81
2024/02/08 21:19:53;;;;;;;53.10;22.30;;;;;;;4.15;76.89;98918.12;674428;1263;139478;-80
2024/02/08 21:34:57;;;;;;;109.80;39.00;;;;;;;4.00;76.05;98924.61;679250;1264;138764;-80
2024/02/08 21:50:06;;;;;;;90.90;27.90;;;;;;;3.88;75.75;98912.92;675501;1275;139185;-80
2024/02/08 22:05:12;;;;;;;81.70;30.50;;;;;;;3.83;75.57;98905.00;679281;1262;139547;-80
2024/02/08 22:20:17;;;;;;;87.10;30.10;;;;;;;3.69;75.53;98909.07;677879;1264;140031;-79
2024/02/08 22:35:21;;;;;;;117.20;37.50;;;;;;;3.47;75.54;98910.81;680001;1263;139586;-79
2024/02/08 22:50:25;;;;;;;102.00;33.90;;;;;;;3.36;75.87;98910.54;678311;1269;139038;-78
2024/02/08 23:05:30;;;;;;;52.90;19.70;;;;;;;3.31;76.66;98905.75;679524;1260;139137;-79
2024/02/08 23:20:34;;;;;;;77.50;28.00;;;;;;;3.39;77.15;98903.23;678943;1263;140567;-79
2024/02/08 23:35:38;;;;;;;59.00;22.70;;;;;;;3.48;77.11;98900.27;680533;1259;139599;-79
2024/02/08 23:50:42;;;;;;;485.90;145.40;;;;;;;3.47;77.34;98910.86;678654;1262;139026;-79
